Time;durP1;ratioP1;P1;durP2;ratioP2;P2;SDS_P1;SDS_P2;PMS_P1;PMS_P2;Temp;Humidity;BMP_temperature;BMP_pressure;BME280_temperature;BME280_humidity;BME280_pressure;Samples;Min_cycle;Max_cycle;Signal;HPM_P1;HPM_P2
2023/12/30 00:00:50;;;;;;;4.10;2.53;;;9.20;99.90;;;;;;5050653;28;20466;-81
2023/12/30 00:03:24;;;;;;;2.57;2.47;;;9.30;99.90;;;;;;5044388;28;20527;-81
2023/12/30 00:05:54;;;;;;;2.93;2.73;;;9.40;99.90;;;;;;5043341;28;20509;-82
2023/12/30 00:08:26;;;;;;;2.73;2.53;;;9.40;99.90;;;;;;5044944;28;20497;-81
2023/12/30 00:10:55;;;;;;;3.80;2.40;;;9.40;99.90;;;;;;5045232;28;20889;-81
2023/12/30 00:13:26;;;;;;;2.70;2.50;;;9.40;99.90;;;;;;5044604;28;20512;-82
2023/12/30 00:15:54;;;;;;;2.70;2.50;;;9.70;99.90;;;;;;5043201;28;20419;-81
2023/12/30 00:18:29;;;;;;;3.00;2.80;;;9.50;99.90;;;;;;5042451;28;20474;-81
2023/12/30 00:20:56;;;;;;;3.40;2.87;;;9.50;99.90;;;;;;5041370;28;20829;-81
2023/12/30 00:23:31;;;;;;;3.17;2.97;;;9.50;99.90;;;;;;5042926;28;20427;-81
2023/12/30 00:26:02;;;;;;;2.13;2.03;;;9.60;99.90;;;;;;5040230;28;20910;-81
2023/12/30 00:28:31;;;;;;;3.50;2.73;;;9.60;99.90;;;;;;5040883;28;20425;-83
2023/12/30 00:31:04;;;;;;;2.77;2.43;;;9.70;99.90;;;;;;5041508;28;20471;-82
2023/12/30 00:33:35;;;;;;;2.43;2.33;;;9.70;99.90;;;;;;5041079;28;20853;-81
2023/12/30 00:36:05;;;;;;;2.90;2.70;;;9.70;99.90;;;;;;5043123;28;20462;-81
2023/12/30 00:38:36;;;;;;;3.10;2.90;;;9.70;99.90;;;;;;5041868;28;20466;-81
2023/12/30 00:41:04;;;;;;;2.73;2.63;;;9.70;99.90;;;;;;5040718;28;20470;-83
2023/12/30 00:43:35;;;;;;;2.53;2.40;;;9.70;99.90;;;;;;5041122;28;20470;-82
2023/12/30 00:46:06;;;;;;;3.23;3.03;;;9.70;99.90;;;;;;5040683;28;20443;-81
2023/12/30 00:48:51;;;;;;;2.70;2.50;;;9.80;99.90;;;;;;5039110;28;20439;-83
2023/12/30 00:51:28;;;;;;;2.60;2.40;;;9.80;99.90;;;;;;5039162;28;20481;-83
2023/12/30 00:53:56;;;;;;;2.70;2.50;;;9.80;99.90;;;;;;5039610;28;20461;-81
2023/12/30 00:56:29;;;;;;;2.90;2.70;;;9.90;99.90;;;;;;5040744;28;20459;-82
2023/12/30 00:59:04;;;;;;;2.50;2.30;;;9.90;99.90;;;;;;5040776;28;20466;-81
2023/12/30 01:01:41;;;;;;;2.50;2.40;;;10.00;99.90;;;;;;5039837;28;20448;-82
2023/12/30 01:04:18;;;;;;;2.20;2.10;;;10.00;99.90;;;;;;5039876;28;20508;-82
2023/12/30 01:06:55;;;;;;;3.13;2.93;;;10.10;99.90;;;;;;5021761;28;20432;-82
2023/12/30 01:09:27;;;;;;;2.70;2.50;;;10.10;99.90;;;;;;5019876;28;20522;-83
2023/12/30 01:11:59;;;;;;;2.50;2.30;;;10.10;99.90;;;;;;5021586;28;21051;-81
2023/12/30 01:14:31;;;;;;;2.77;2.20;;;10.10;99.90;;;;;;5021602;28;20431;-81
2023/12/30 01:17:09;;;;;;;2.80;2.70;;;10.00;99.90;;;;;;5023610;28;20471;-81
2023/12/30 01:19:53;;;;;;;2.53;2.33;;;10.00;99.90;;;;;;5020688;28;20431;-82
2023/12/30 01:22:23;;;;;;;2.53;2.43;;;10.10;99.90;;;;;;5033797;28;20462;-82
2023/12/30 01:25:11;;;;;;;2.37;2.23;;;10.00;99.90;;;;;;5038434;28;20492;-81
2023/12/30 01:27:45;;;;;;;2.50;2.40;;;10.00;99.90;;;;;;5034461;28;21072;-82
2023/12/30 01:30:19;;;;;;;2.73;2.53;;;10.00;99.90;;;;;;5043387;28;20410;-81
2023/12/30 01:33:01;;;;;;;3.43;2.30;;;10.00;99.90;;;;;;5039320;28;20492;-82
2023/12/30 01:35:43;;;;;;;2.77;2.57;;;10.00;99.90;;;;;;5045378;28;20422;-81
2023/12/30 01:38:16;;;;;;;2.90;2.70;;;9.90;99.90;;;;;;5047698;28;20493;-81
2023/12/30 01:40:53;;;;;;;2.60;2.40;;;9.90;99.90;;;;;;5048097;28;20486;-80
2023/12/30 01:43:31;;;;;;;3.03;2.83;;;9.60;99.90;;;;;;5047001;28;20438;-82
2023/12/30 01:46:05;;;;;;;3.20;2.60;;;9.80;99.90;;;;;;5045075;28;20434;-81
2023/12/30 01:48:44;;;;;;;3.47;2.83;;;9.80;99.90;;;;;;5044712;28;20495;-80
2023/12/30 01:51:14;;;;;;;2.83;2.73;;;9.70;99.90;;;;;;5047118;28;20469;-81
2023/12/30 01:53:52;;;;;;;2.70;2.50;;;9.70;99.90;;;;;;5038801;28;20519;-81
2023/12/30 01:56:22;;;;;;;2.67;2.47;;;9.70;99.90;;;;;;5025879;28;20840;-81
2023/12/30 01:58:52;;;;;;;2.87;2.67;;;9.70;99.90;;;;;;5024953;28;20550;-81
2023/12/30 02:01:26;;;;;;;2.70;2.50;;;9.60;99.90;;;;;;5023461;28;20841;-80
2023/12/30 02:03:58;;;;;;;2.70;2.57;;;9.60;99.90;;;;;;5021194;28;20542;-81
2023/12/30 02:06:33;;;;;;;2.70;2.50;;;9.30;99.90;;;;;;5039572;28;20451;-81
2023/12/30 02:09:03;;;;;;;2.80;2.60;;;9.60;99.90;;;;;;5041603;28;20450;-82
2023/12/30 02:11:32;;;;;;;2.90;2.70;;;9.70;99.90;;;;;;5042280;28;20481;-81
2023/12/30 02:14:07;;;;;;;2.70;2.60;;;9.80;99.90;;;;;;5042250;28;20430;-82
2023/12/30 02:16:38;;;;;;;2.47;2.37;;;9.60;99.90;;;;;;5042027;28;20504;-82
2023/12/30 02:19:08;;;;;;;2.70;2.53;;;9.60;99.90;;;;;;5041744;28;20853;-82
2023/12/30 02:21:37;;;;;;;4.03;2.87;;;9.50;99.90;;;;;;5041716;28;20470;-82
2023/12/30 02:24:07;;;;;;;2.20;2.10;;;9.60;99.90;;;;;;5025568;28;20448;-81
2023/12/30 02:26:43;;;;;;;3.40;3.10;;;9.50;99.90;;;;;;5032022;28;20459;-81
2023/12/30 02:29:14;;;;;;;2.90;2.80;;;9.50;99.90;;;;;;5032033;28;20511;-83
2023/12/30 02:31:47;;;;;;;2.33;2.23;;;9.50;99.90;;;;;;5029679;28;20561;-82
2023/12/30 02:34:17;;;;;;;2.90;2.70;;;9.50;99.90;;;;;;5031190;28;20439;-82
2023/12/30 02:36:50;;;;;;;3.17;2.70;;;9.50;99.90;;;;;;5024696;28;20900;-82
2023/12/30 02:39:19;;;;;;;2.70;2.30;;;9.50;99.90;;;;;;5026011;28;20527;-83
2023/12/30 02:41:50;;;;;;;3.63;3.30;;;9.50;99.90;;;;;;5028883;28;20475;-82
2023/12/30 02:44:21;;;;;;;2.83;2.63;;;9.50;99.90;;;;;;5029577;28;20424;-82
2023/12/30 02:46:48;;;;;;;2.93;2.73;;;9.40;99.90;;;;;;5028629;28;20439;-82
2023/12/30 02:49:41;;;;;;;2.40;2.30;;;9.40;99.90;;;;;;5036876;28;20454;-82
2023/12/30 02:52:13;;;;;;;3.03;2.63;;;9.20;99.90;;;;;;5044000;28;20462;-81
2023/12/30 02:54:42;;;;;;;3.30;3.00;;;9.40;99.90;;;;;;5043363;28;20500;-82
2023/12/30 02:57:15;;;;;;;2.73;2.63;;;9.30;99.90;;;;;;5035611;28;20447;-81
2023/12/30 02:59:49;;;;;;;3.50;3.30;;;9.30;99.90;;;;;;5030141;28;20971;-82
2023/12/30 03:02:16;;;;;;;3.20;2.97;;;9.30;99.90;;;;;;5032721;28;20469;-80
2023/12/30 03:04:51;;;;;;;4.00;3.13;;;9.30;99.90;;;;;;5042612;28;20570;-81
2023/12/30 03:07:20;;;;;;;3.03;2.70;;;9.30;99.90;;;;;;5049552;28;20450;-81
2023/12/30 03:09:49;;;;;;;3.30;2.97;;;9.20;99.90;;;;;;5034086;28;20439;-81
2023/12/30 03:12:20;;;;;;;2.67;2.47;;;9.20;99.90;;;;;;5049186;28;20454;-81
2023/12/30 03:14:53;;;;;;;3.10;2.80;;;9.20;99.90;;;;;;5038846;28;20432;-82
2023/12/30 03:17:20;;;;;;;2.90;2.70;;;9.20;99.90;;;;;;5044468;28;20542;-82
2023/12/30 03:19:51;;;;;;;2.87;2.67;;;9.10;99.90;;;;;;5049844;28;20466;-82
2023/12/30 03:22:19;;;;;;;5.13;3.00;;;9.10;99.90;;;;;;5049355;28;20476;-81
2023/12/30 03:24:49;;;;;;;3.10;2.90;;;9.10;99.90;;;;;;5048319;28;20466;-82
2023/12/30 03:27:19;;;;;;;3.20;2.90;;;9.10;99.90;;;;;;5047674;28;20450;-81
2023/12/30 03:29:48;;;;;;;3.30;3.10;;;9.10;99.90;;;;;;5047077;28;20591;-82
2023/12/30 03:32:18;;;;;;;3.00;2.80;;;9.10;99.90;;;;;;5045961;28;20516;-81
2023/12/30 03:34:51;;;;;;;2.80;2.60;;;8.80;99.90;;;;;;5041201;28;20525;-81
2023/12/30 03:37:22;;;;;;;3.03;2.43;;;9.10;99.90;;;;;;5025529;28;20443;-81
2023/12/30 03:39:53;;;;;;;4.07;3.20;;;8.80;99.90;;;;;;5026829;28;20482;-82
2023/12/30 03:42:27;;;;;;;2.93;2.73;;;9.10;99.90;;;;;;5027847;28;20498;-81
2023/12/30 03:45:05;;;;;;;2.90;2.60;;;9.00;99.90;;;;;;5027893;28;20450;-83
2023/12/30 03:47:41;;;;;;;2.60;2.40;;;9.00;99.90;;;;;;5026266;28;20447;-82
2023/12/30 03:50:16;;;;;;;2.83;2.53;;;8.90;99.90;;;;;;5027423;28;20459;-83
2023/12/30 03:52:47;;;;;;;2.60;2.40;;;8.90;99.90;;;;;;5027821;28;20458;-82
2023/12/30 03:55:24;;;;;;;2.70;2.57;;;8.90;99.90;;;;;;5041915;28;20443;-83
2023/12/30 03:57:59;;;;;;;5.10;2.40;;;8.90;99.90;;;;;;5047513;28;20471;-81
2023/12/30 04:00:36;;;;;;;2.53;2.43;;;9.10;99.90;;;;;;5047850;28;20466;-82
2023/12/30 04:03:05;;;;;;;3.00;2.80;;;8.90;99.90;;;;;;5046604;28;20414;-83
2023/12/30 04:05:40;;;;;;;2.60;2.40;;;8.90;99.90;;;;;;5036492;28;20447;-83
2023/12/30 04:08:15;;;;;;;3.10;2.80;;;8.90;99.90;;;;;;5027624;28;20451;-82
2023/12/30 04:10:52;;;;;;;2.90;2.70;;;8.90;99.90;;;;;;5033000;28;20482;-82
2023/12/30 04:13:34;;;;;;;5.00;2.70;;;8.80;99.90;;;;;;5033938;28;20449;-82
2023/12/30 04:16:15;;;;;;;3.00;2.80;;;8.80;99.90;;;;;;5040696;28;20439;-80
2023/12/30 04:18:56;;;;;;;2.97;2.63;;;8.80;99.90;;;;;;5033944;28;20502;-84
2023/12/30 04:21:48;;;;;;;3.03;2.80;;;8.80;99.90;;;;;;5049778;28;20458;-80
2023/12/30 04:24:25;;;;;;;2.30;2.20;;;8.80;99.90;;;;;;5050615;28;20458;-81
2023/12/30 04:27:04;;;;;;;2.70;2.57;;;8.80;99.90;;;;;;5053007;28;20450;-80
2023/12/30 04:29:33;;;;;;;2.67;2.47;;;8.80;99.90;;;;;;5051974;28;20445;-81
2023/12/30 04:32:07;;;;;;;3.17;2.60;;;8.80;99.90;;;;;;5052325;28;20463;-81
2023/12/30 04:34:40;;;;;;;2.80;2.60;;;8.80;99.90;;;;;;5052462;28;20473;-78
2023/12/30 04:37:09;;;;;;;2.40;2.30;;;8.70;99.90;;;;;;5050391;28;20510;-82
2023/12/30 04:39:42;;;;;;;2.53;2.33;;;8.70;99.90;;;;;;5049114;28;20466;-81
2023/12/30 04:42:15;;;;;;;2.70;2.50;;;8.70;99.90;;;;;;5049281;28;20561;-81
2023/12/30 04:44:56;;;;;;;2.60;2.40;;;8.70;99.90;;;;;;5045500;28;20550;-81
2023/12/30 04:47:36;;;;;;;2.50;2.30;;;8.70;99.90;;;;;;5032387;28;20777;-80
2023/12/30 04:50:12;;;;;;;4.00;2.57;;;8.70;99.90;;;;;;5038519;28;20459;-81
2023/12/30 04:52:53;;;;;;;2.90;2.40;;;8.70;99.90;;;;;;5036156;28;20432;-81
2023/12/30 04:55:27;;;;;;;2.63;2.43;;;8.40;99.90;;;;;;5036542;28;20814;-81
2023/12/30 04:58:05;;;;;;;4.80;2.37;;;8.70;99.90;;;;;;5037611;28;20451;-82
2023/12/30 05:00:40;;;;;;;3.03;2.47;;;8.70;99.90;;;;;;5028796;28;20517;-82
2023/12/30 05:03:13;;;;;;;2.23;2.13;;;8.70;99.90;;;;;;5030168;28;20505;-82
2023/12/30 05:05:54;;;;;;;5.00;2.77;;;8.70;99.90;;;;;;5036370;28;20470;-82
2023/12/30 05:08:27;;;;;;;2.30;2.20;;;8.70;99.90;;;;;;5046968;28;20446;-82
2023/12/30 05:10:57;;;;;;;2.60;2.23;;;8.70;99.90;;;;;;5045194;28;20546;-83
2023/12/30 05:13:39;;;;;;;3.40;2.30;;;8.80;99.90;;;;;;5047553;28;20431;-82
2023/12/30 05:16:07;;;;;;;2.40;2.20;;;8.70;99.90;;;;;;5041479;28;20435;-82
2023/12/30 05:18:44;;;;;;;2.17;2.07;;;8.70;99.90;;;;;;5036330;28;20482;-84
2023/12/30 05:21:20;;;;;;;2.00;1.90;;;8.80;99.90;;;;;;5047497;28;20478;-84
2023/12/30 05:24:01;;;;;;;2.10;2.00;;;8.50;99.90;;;;;;5047593;28;20461;-82
2023/12/30 05:26:45;;;;;;;3.10;2.30;;;8.80;99.90;;;;;;5047811;28;20454;-84
2023/12/30 05:29:16;;;;;;;2.27;2.10;;;8.80;99.90;;;;;;5029765;28;20478;-82
2023/12/30 05:32:04;;;;;;;1.77;1.67;;;8.80;99.90;;;;;;5028935;28;20498;-82
2023/12/30 05:34:42;;;;;;;2.27;1.93;;;8.80;99.90;;;;;;5038094;28;20481;-82
2023/12/30 05:37:14;;;;;;;2.50;1.70;;;8.80;99.90;;;;;;5048365;28;20442;-83
2023/12/30 05:39:48;;;;;;;1.80;1.70;;;8.80;99.90;;;;;;5048678;28;20497;-82
2023/12/30 05:42:24;;;;;;;1.57;1.47;;;8.80;99.90;;;;;;5048908;28;20447;-82
2023/12/30 05:45:05;;;;;;;1.50;1.40;;;8.80;99.90;;;;;;5050882;28;20450;-82
2023/12/30 05:47:43;;;;;;;1.43;1.40;;;8.80;99.90;;;;;;5031121;28;20482;-83
2023/12/30 05:50:18;;;;;;;2.10;1.90;;;8.80;99.90;;;;;;5026267;28;20526;-82
2023/12/30 05:52:52;;;;;;;2.47;1.40;;;8.80;99.90;;;;;;5024603;28;20458;-82
2023/12/30 05:55:24;;;;;;;1.40;1.30;;;8.80;99.90;;;;;;5026830;28;20458;-82
2023/12/30 05:57:59;;;;;;;1.77;1.67;;;8.80;99.90;;;;;;5044714;28;20451;-81
2023/12/30 06:00:42;;;;;;;2.00;1.60;;;8.80;99.90;;;;;;5045412;28;20494;-82
2023/12/30 06:03:13;;;;;;;1.40;1.40;;;8.80;99.90;;;;;;5033528;28;20450;-82
2023/12/30 06:05:46;;;;;;;2.17;1.60;;;8.80;99.90;;;;;;5034405;28;20883;-83
2023/12/30 06:08:23;;;;;;;1.73;1.60;;;8.80;99.90;;;;;;5025534;28;20448;-82
2023/12/30 06:10:56;;;;;;;1.43;1.33;;;8.80;99.90;;;;;;5023867;28;20463;-83
2023/12/30 06:13:30;;;;;;;1.87;1.77;;;8.80;99.90;;;;;;5024124;28;20475;-83
2023/12/30 06:16:15;;;;;;;3.17;1.63;;;8.80;99.90;;;;;;5031907;28;20446;-84
2023/12/30 06:18:55;;;;;;;1.80;1.70;;;8.80;99.90;;;;;;5028278;28;20455;-81
2023/12/30 06:21:31;;;;;;;2.10;1.60;;;8.80;99.90;;;;;;5049944;28;20522;-84
2023/12/30 06:24:07;;;;;;;2.30;1.63;;;8.80;99.90;;;;;;5052095;28;20464;-81
2023/12/30 06:26:51;;;;;;;1.50;1.50;;;8.80;99.90;;;;;;5049649;28;20464;-81
2023/12/30 06:29:22;;;;;;;1.73;1.63;;;8.70;99.90;;;;;;5047662;28;20450;-82
2023/12/30 06:32:01;;;;;;;1.90;1.70;;;8.80;99.90;;;;;;5047601;28;20525;-82
2023/12/30 06:34:45;;;;;;;1.60;1.50;;;8.70;99.90;;;;;;5047603;28;20446;-82
2023/12/30 06:37:40;;;;;;;1.80;1.80;;;8.70;99.90;;;;;;5051859;28;20454;-82
2023/12/30 06:40:24;;;;;;;1.57;1.47;;;9.00;99.90;;;;;;5051143;28;20474;-82
2023/12/30 06:42:55;;;;;;;2.10;1.53;;;8.70;99.90;;;;;;5045290;28;20932;-82
2023/12/30 06:45:35;;;;;;;1.47;1.37;;;8.60;99.90;;;;;;5046899;28;20506;-82
2023/12/30 06:48:25;;;;;;;1.70;1.60;;;8.40;99.90;;;;;;5049779;28;20440;-82
2023/12/30 06:51:19;;;;;;;2.03;1.70;;;8.70;99.90;;;;;;5049384;28;20470;-82
2023/12/30 06:54:04;;;;;;;1.60;1.50;;;8.70;99.90;;;;;;5047681;28;20525;-81
2023/12/30 06:56:47;;;;;;;1.80;1.70;;;8.40;99.90;;;;;;5050948;28;20464;-82
2023/12/30 06:59:20;;;;;;;1.53;1.40;;;8.70;99.90;;;;;;5052013;28;20509;-82
2023/12/30 07:02:02;;;;;;;1.40;1.40;;;8.70;99.90;;;;;;5050820;28;20484;-82
2023/12/30 07:04:36;;;;;;;2.60;1.53;;;8.70;99.90;;;;;;5050994;28;20510;-82
2023/12/30 07:07:15;;;;;;;1.40;1.30;;;8.70;99.90;;;;;;5050431;28;20446;-84
2023/12/30 07:09:52;;;;;;;2.27;2.07;;;8.70;99.90;;;;;;5048088;28;20457;-82
2023/12/30 07:12:46;;;;;;;2.87;2.67;;;8.70;99.90;;;;;;5043725;28;20494;-83
2023/12/30 07:15:29;;;;;;;2.03;1.43;;;8.70;99.90;;;;;;5040368;28;20454;-83
2023/12/30 07:18:07;;;;;;;1.70;1.60;;;8.70;99.90;;;;;;5042428;28;20423;-82
2023/12/30 07:20:37;;;;;;;1.70;1.33;;;8.70;99.90;;;;;;5041005;28;20477;-82
2023/12/30 07:23:16;;;;;;;2.93;1.63;;;8.70;99.90;;;;;;5041731;28;20541;-83
2023/12/30 07:26:07;;;;;;;2.17;1.97;;;8.70;99.90;;;;;;5043285;28;20434;-83
2023/12/30 07:28:40;;;;;;;2.50;2.30;;;8.70;99.90;;;;;;5043087;28;20450;-81
2023/12/30 07:31:17;;;;;;;1.77;1.67;;;8.70;99.90;;;;;;5044753;28;20549;-83
2023/12/30 07:33:51;;;;;;;1.80;1.70;;;8.70;99.90;;;;;;5030384;28;20447;-81
2023/12/30 07:36:33;;;;;;;4.30;1.80;;;8.70;99.90;;;;;;5029220;28;20442;-80
2023/12/30 07:39:02;;;;;;;2.00;1.90;;;8.70;99.90;;;;;;5044070;28;20458;-81
2023/12/30 07:41:32;;;;;;;2.30;1.80;;;8.70;99.90;;;;;;5040550;28;20537;-82
2023/12/30 07:44:04;;;;;;;2.50;1.97;;;8.70;99.90;;;;;;5023491;28;20455;-83
2023/12/30 07:46:34;;;;;;;1.90;1.80;;;8.90;99.90;;;;;;5024427;28;20483;-79
2023/12/30 07:49:10;;;;;;;2.27;2.07;;;8.70;99.90;;;;;;5028595;28;20451;-81
2023/12/30 07:51:53;;;;;;;2.27;2.07;;;8.90;99.90;;;;;;5048468;28;20458;-80
2023/12/30 07:54:26;;;;;;;4.43;2.30;;;8.70;99.90;;;;;;5046933;28;20504;-80
2023/12/30 07:57:05;;;;;;;3.87;1.70;;;8.70;99.90;;;;;;5047324;28;20809;-81
2023/12/30 07:59:36;;;;;;;2.43;2.33;;;8.70;99.90;;;;;;5051534;28;20470;-81
2023/12/30 08:02:07;;;;;;;3.53;2.23;;;8.80;99.90;;;;;;5050209;28;20526;-81
2023/12/30 08:04:35;;;;;;;2.50;2.00;;;8.80;99.90;;;;;;5045158;28;21170;-82
2023/12/30 08:07:06;;;;;;;2.53;2.33;;;8.80;99.90;;;;;;5026713;28;20501;-82
2023/12/30 08:09:38;;;;;;;2.30;1.97;;;8.90;99.90;;;;;;5024324;28;20453;-83
2023/12/30 08:12:08;;;;;;;3.00;2.47;;;8.90;99.90;;;;;;5023277;28;20499;-83
2023/12/30 08:14:43;;;;;;;4.10;2.30;;;9.00;99.90;;;;;;5029423;28;20436;-84
2023/12/30 08:17:17;;;;;;;3.87;3.00;;;8.90;99.90;;;;;;5028216;28;20447;-82
2023/12/30 08:19:48;;;;;;;6.43;3.53;;;9.00;99.90;;;;;;5026441;28;20475;-82
2023/12/30 08:22:21;;;;;;;3.57;2.40;;;8.70;99.90;;;;;;5026344;28;20459;-83
2023/12/30 08:25:10;;;;;;;2.47;2.27;;;9.10;99.90;;;;;;5027510;28;20772;-82
2023/12/30 08:27:49;;;;;;;3.57;2.97;;;9.10;99.90;;;;;;5027376;28;20444;-82
2023/12/30 08:30:32;;;;;;;2.40;2.30;;;9.10;99.90;;;;;;5025300;28;20460;-82
2023/12/30 08:33:06;;;;;;;2.07;1.97;;;9.10;99.90;;;;;;5024573;28;20428;-82
2023/12/30 08:35:34;;;;;;;2.60;2.50;;;9.10;99.90;;;;;;5024305;28;20481;-83
2023/12/30 08:38:06;;;;;;;4.03;2.50;;;9.20;99.90;;;;;;5020930;28;20436;-83
2023/12/30 08:40:40;;;;;;;2.63;2.43;;;9.20;99.90;;;;;;5019883;28;20489;-82
2023/12/30 08:43:23;;;;;;;3.83;2.80;;;9.30;99.90;;;;;;5020978;28;20443;-82
2023/12/30 08:45:59;;;;;;;1.70;1.60;;;9.10;99.90;;;;;;5021679;28;20444;-82
2023/12/30 08:48:27;;;;;;;2.43;2.20;;;9.40;99.90;;;;;;5024116;28;20454;-82
2023/12/30 08:50:56;;;;;;;1.87;1.77;;;9.60;99.90;;;;;;5023226;28;20463;-82
2023/12/30 08:53:39;;;;;;;1.83;1.73;;;9.60;99.90;;;;;;5026327;28;20442;-83
2023/12/30 08:56:12;;;;;;;2.03;1.70;;;9.50;99.90;;;;;;5023426;28;20435;-83
2023/12/30 08:58:42;;;;;;;1.70;1.60;;;9.50;99.90;;;;;;5034221;28;20483;-82
2023/12/30 09:04:08;;;;;;;1.93;1.83;;;9.60;99.90;;;;;;4997107;28;20427;-84
2023/12/30 09:06:44;;;;;;;2.50;2.30;;;9.80;99.90;;;;;;5023416;28;20471;-84
2023/12/30 09:09:23;;;;;;;2.33;2.00;;;9.80;99.90;;;;;;5045330;28;20478;-83
2023/12/30 09:11:56;;;;;;;2.63;2.43;;;9.80;99.90;;;;;;5045567;28;20446;-83
2023/12/30 09:14:28;;;;;;;3.90;1.50;;;9.60;99.90;;;;;;5035883;28;20440;-84
2023/12/30 09:17:02;;;;;;;1.80;1.70;;;10.10;99.90;;;;;;5027316;28;20443;-83
2023/12/30 09:19:33;;;;;;;2.30;1.40;;;9.80;99.90;;;;;;5023763;28;20436;-84
2023/12/30 09:22:03;;;;;;;1.50;1.40;;;9.90;99.90;;;;;;5023613;28;20471;-84
2023/12/30 09:24:32;;;;;;;1.67;1.57;;;9.90;99.90;;;;;;5023761;28;20459;-82
2023/12/30 09:27:07;;;;;;;3.13;2.00;;;9.90;99.90;;;;;;5020936;28;20441;-82
2023/12/30 09:29:46;;;;;;;1.90;1.73;;;9.90;99.90;;;;;;5020706;28;20502;-82
2023/12/30 09:32:15;;;;;;;1.40;1.40;;;9.90;99.90;;;;;;5022126;28;20456;-82
2023/12/30 09:34:46;;;;;;;1.57;1.47;;;10.10;99.90;;;;;;5022415;28;20779;-82
2023/12/30 09:37:23;;;;;;;1.77;1.67;;;9.90;99.90;;;;;;5022807;28;20428;-83
2023/12/30 09:39:54;;;;;;;2.30;1.70;;;10.00;99.90;;;;;;5020886;28;20471;-83
2023/12/30 09:42:25;;;;;;;1.90;1.77;;;10.00;99.90;;;;;;5021522;28;20443;-83
2023/12/30 09:44:59;;;;;;;2.17;1.97;;;10.00;99.90;;;;;;5022742;28;20463;-84
2023/12/30 09:47:30;;;;;;;2.13;1.33;;;10.10;99.90;;;;;;5023504;28;20470;-82
2023/12/30 09:50:03;;;;;;;1.60;1.50;;;10.00;99.90;;;;;;5025102;28;20454;-81
2023/12/30 09:52:30;;;;;;;1.50;1.40;;;10.10;99.90;;;;;;5027008;28;20470;-80
2023/12/30 09:55:05;;;;;;;1.40;1.40;;;10.10;99.90;;;;;;5025997;28;20456;-81
2023/12/30 09:57:41;;;;;;;1.50;1.40;;;10.30;99.90;;;;;;5047274;28;20437;-79
2023/12/30 10:00:22;;;;;;;1.33;1.23;;;10.50;99.90;;;;;;5047728;28;20531;-82
2023/12/30 10:03:00;;;;;;;2.10;1.43;;;10.70;99.90;;;;;;5046783;28;20457;-81
2023/12/30 10:05:28;;;;;;;3.53;1.10;;;10.90;99.90;;;;;;5037362;28;20515;-81
2023/12/30 10:08:16;;;;;;;1.93;1.43;;;11.20;99.90;;;;;;5039975;28;20459;-80
2023/12/30 10:10:47;;;;;;;1.87;1.67;;;11.20;99.90;;;;;;5036823;28;20492;-81
2023/12/30 10:13:17;;;;;;;1.30;1.13;;;11.40;99.90;;;;;;5040481;28;20474;-80
2023/12/30 10:15:47;;;;;;;2.30;1.20;;;11.50;99.90;;;;;;5036985;28;20439;-81
2023/12/30 10:18:22;;;;;;;1.10;1.00;;;11.30;99.90;;;;;;5039402;28;20802;-82
2023/12/30 10:20:54;;;;;;;1.17;1.17;;;11.80;99.90;;;;;;5040001;28;20493;-80
2023/12/30 10:23:38;;;;;;;1.80;1.70;;;12.00;99.90;;;;;;5042089;28;20457;-81
2023/12/30 10:26:09;;;;;;;1.33;1.23;;;11.80;99.90;;;;;;5037831;28;20924;-82
2023/12/30 10:28:48;;;;;;;1.97;1.40;;;12.10;99.90;;;;;;5031733;28;20459;-82
2023/12/30 10:31:23;;;;;;;1.63;1.53;;;12.30;99.90;;;;;;5043593;28;20474;-81
2023/12/30 10:33:53;;;;;;;1.40;1.00;;;12.30;99.90;;;;;;5039893;28;20434;-81
2023/12/30 10:36:20;;;;;;;1.00;1.00;;;12.40;99.90;;;;;;5041799;28;20435;-81
2023/12/30 10:38:49;;;;;;;1.20;1.20;;;12.20;99.90;;;;;;5039124;28;20515;-83
2023/12/30 10:41:21;;;;;;;2.10;0.93;;;12.10;99.90;;;;;;5042441;28;20479;-83
2023/12/30 10:43:54;;;;;;;1.07;0.90;;;12.10;99.90;;;;;;5043539;28;20458;-81
2023/12/30 10:46:25;;;;;;;1.60;1.00;;;12.10;99.90;;;;;;5040412;28;20445;-81
2023/12/30 10:49:03;;;;;;;0.93;0.90;;;12.10;99.90;;;;;;5033803;28;20497;-83
2023/12/30 10:51:36;;;;;;;1.80;1.03;;;12.10;99.90;;;;;;5042320;28;20530;-81
2023/12/30 10:54:06;;;;;;;1.20;1.17;;;12.10;99.90;;;;;;5041385;28;20435;-82
2023/12/30 10:56:40;;;;;;;0.90;0.90;;;12.30;99.90;;;;;;5036289;28;20436;-80
2023/12/30 10:59:14;;;;;;;2.73;0.80;;;12.30;99.90;;;;;;5036943;28;20443;-81
2023/12/30 11:01:44;;;;;;;1.73;0.83;;;11.90;99.90;;;;;;5037117;28;20498;-81
2023/12/30 11:07:04;;;;;;;0.70;0.70;;;12.30;99.90;;;;;;5036240;28;20474;-79
2023/12/30 11:09:35;;;;;;;1.10;1.10;;;12.30;99.90;;;;;;5041354;28;20451;-79
2023/12/30 11:12:11;;;;;;;2.20;0.90;;;12.40;99.90;;;;;;5042301;28;20471;-83
2023/12/30 11:14:47;;;;;;;0.90;0.90;;;12.40;99.90;;;;;;5041243;28;20481;-80
2023/12/30 11:17:41;;;;;;;0.70;0.70;;;12.20;99.90;;;;;;5042284;28;20892;-80
2023/12/30 11:20:33;;;;;;;0.60;0.60;;;12.40;99.90;;;;;;5036078;28;20532;-81
2023/12/30 11:23:02;;;;;;;1.90;0.80;;;12.40;99.90;;;;;;5043223;28;20528;-82
2023/12/30 11:25:46;;;;;;;0.70;0.60;;;12.70;99.90;;;;;;5040656;28;20473;-82
2023/12/30 11:28:23;;;;;;;1.30;0.70;;;12.40;99.90;;;;;;5039084;28;20427;-80
2023/12/30 11:31:03;;;;;;;0.80;0.80;;;12.30;99.90;;;;;;5037246;28;20470;-81
2023/12/30 11:33:32;;;;;;;0.77;0.77;;;12.30;99.90;;;;;;5043171;28;20441;-80
2023/12/30 11:36:01;;;;;;;1.30;0.77;;;12.20;99.90;;;;;;5039986;28;20456;-79
2023/12/30 11:38:34;;;;;;;0.70;0.70;;;12.20;99.90;;;;;;5043417;28;20437;-79
2023/12/30 11:41:02;;;;;;;1.20;0.80;;;12.20;99.90;;;;;;5037880;28;20478;-80
2023/12/30 11:43:31;;;;;;;0.80;0.80;;;12.30;99.90;;;;;;5043547;28;20481;-80
2023/12/30 11:45:59;;;;;;;1.90;0.70;;;12.30;99.90;;;;;;5040552;28;20435;-79
2023/12/30 11:48:26;;;;;;;1.00;0.90;;;12.10;99.90;;;;;;5038416;28;20443;-79
2023/12/30 11:50:54;;;;;;;0.67;0.67;;;12.20;99.90;;;;;;5042098;28;20455;-80
2023/12/30 11:53:21;;;;;;;0.80;0.80;;;12.20;99.90;;;;;;5040939;28;20510;-79
2023/12/30 11:55:52;;;;;;;3.00;0.90;;;12.10;99.90;;;;;;5041872;28;20504;-80
2023/12/30 11:58:21;;;;;;;1.00;0.90;;;12.20;99.90;;;;;;5038269;28;20467;-82
2023/12/30 12:00:55;;;;;;;1.90;1.00;;;12.20;99.90;;;;;;5042245;28;20585;-80
2023/12/30 12:03:23;;;;;;;0.80;0.80;;;12.30;99.90;;;;;;5040694;28;20510;-83
2023/12/30 12:05:57;;;;;;;1.90;0.97;;;12.40;99.90;;;;;;5043860;28;20506;-80
2023/12/30 12:08:33;;;;;;;0.80;0.73;;;12.40;99.90;;;;;;5043047;28;20470;-80
2023/12/30 12:11:06;;;;;;;0.90;0.80;;;12.60;99.90;;;;;;5042427;28;20458;-81
2023/12/30 12:13:42;;;;;;;0.80;0.80;;;12.40;99.90;;;;;;5044865;28;20439;-82
2023/12/30 12:16:12;;;;;;;1.27;0.90;;;12.70;99.90;;;;;;5046261;28;20426;-81
2023/12/30 12:18:47;;;;;;;1.03;0.90;;;12.50;99.90;;;;;;5044680;28;20455;-82
2023/12/30 12:21:29;;;;;;;1.10;1.00;;;12.50;99.90;;;;;;5043583;28;20558;-83
2023/12/30 12:24:01;;;;;;;1.07;0.97;;;12.90;99.90;;;;;;5040545;28;20491;-82
2023/12/30 12:26:32;;;;;;;0.87;0.87;;;12.70;99.90;;;;;;5050319;28;20423;-82
2023/12/30 12:29:07;;;;;;;2.10;1.40;;;12.80;99.90;;;;;;5047556;28;20443;-82
2023/12/30 12:32:08;;;;;;;1.23;0.93;;;12.60;99.90;;;;;;5035297;28;20466;-83
2023/12/30 12:35:33;;;;;;;0.80;0.80;;;12.60;99.90;;;;;;5032640;28;20461;-83
2023/12/30 12:38:55;;;;;;;;;;;;;;;;;;;;;
2023/12/30 12:41:58;;;;;;;1.03;0.80;;;12.20;99.90;;;;;;5035924;28;20493;-83
2023/12/30 12:48:24;;;;;;;0.97;0.90;;;12.20;99.90;;;;;;5040680;28;20511;-83
2023/12/30 12:54:53;;;;;;;1.57;0.80;;;12.40;99.90;;;;;;5039309;28;20504;-83
2023/12/30 13:07:16;;;;;;;1.80;1.33;;;12.20;99.90;;;;;;4976856;28;20967;-84
2023/12/30 13:13:51;;;;;;;;;;;;;;;;;;;;;
2023/12/30 13:23:57;;;;;;;;;;;;;;;;;;;;;
2023/12/30 13:27:13;;;;;;;0.90;0.90;;;12.20;99.90;;;;;;4855660;29;20466;-84
2023/12/30 13:36:38;;;;;;;2.00;1.07;;;12.00;99.90;;;;;;4871463;29;20441;-85
2023/12/30 13:39:26;;;;;;;1.27;0.80;;;12.00;99.90;;;;;;4929805;29;20458;-83
2023/12/30 13:42:17;;;;;;;1.03;0.93;;;12.00;99.90;;;;;;4962828;28;21063;-82
2023/12/30 13:45:01;;;;;;;1.77;0.80;;;11.90;99.90;;;;;;5017410;28;20558;-83
2023/12/30 13:51:29;;;;;;;0.80;0.80;;;11.60;99.90;;;;;;5037113;28;20505;-82
2023/12/30 13:54:10;;;;;;;1.20;1.10;;;11.90;99.90;;;;;;5047229;28;20514;-83
2023/12/30 13:57:10;;;;;;;1.20;1.10;;;12.00;99.90;;;;;;5046042;28;20433;-83
2023/12/30 13:59:46;;;;;;;1.10;1.10;;;12.00;99.90;;;;;;5033934;28;20477;-82
2023/12/30 14:02:17;;;;;;;0.80;0.80;;;12.00;99.90;;;;;;5036913;28;20569;-81
2023/12/30 14:04:49;;;;;;;9.53;1.13;;;12.00;99.90;;;;;;5044055;28;20443;-80
2023/12/30 14:07:34;;;;;;;1.17;1.13;;;12.00;99.90;;;;;;5027438;28;20566;-81
2023/12/30 14:13:22;;;;;;;1.13;0.87;;;12.00;99.90;;;;;;5029815;28;20427;-83
2023/12/30 14:19:39;;;;;;;0.80;0.80;;;12.00;99.90;;;;;;5045123;28;21043;-83
2023/12/30 14:36:28;;;;;;;1.07;0.90;;;11.80;99.90;;;;;;4999633;28;20449;-82
2023/12/30 14:39:01;;;;;;;1.23;0.90;;;11.90;99.90;;;;;;5047672;28;20485;-80
2023/12/30 14:41:33;;;;;;;2.97;1.30;;;12.20;99.90;;;;;;5048341;28;20481;-81
2023/12/30 14:44:04;;;;;;;1.13;1.13;;;11.90;99.90;;;;;;5050848;28;20447;-85
2023/12/30 14:47:00;;;;;;;1.97;1.00;;;12.00;99.90;;;;;;5032060;28;20436;-83